< < Back
Terminal Aerodrome Forecast


Current Version              Previous Versions:   1  2  3  4  5  6  7  8  9  

Terminal Aerodrome Forecast

775
FTUS42 KGSP 261602 AAC
TAFAVL
TAF AMD
KAVL 261602Z 2616/2712 33008KT P6SM SCT015 BKN025
      TEMPO 2616/2618 BKN015
     FM262000 33008KT P6SM SCT040 BKN200
     FM270000 32003KT P6SM BKN150
     FM270500 VRB03KT P6SM OVC070=



Latest METAR

478
SAUS70 KWBC 270000 RRC
MTRAVL
METAR KAVL 262354Z 34008KT 10SM CLR 06/M01 A3000 RMK AO2 SLP160
T00561011 10106 20050 53012


USA.gov is the U.S. government's official web portal to all federal, state and local government web resources and services.